Time;durP1;ratioP1;P1;durP2;ratioP2;P2;SDS_P1;SDS_P2;PMS_P1;PMS_P2;Temp;Humidity;BMP_temperature;BMP_pressure;BME280_temperature;BME280_humidity;BME280_pressure;Samples;Min_cycle;Max_cycle;Signal;HPM_P1;HPM_P2
2022/12/19 00:00:45;;;;;;;43.80;16.70;;;0.80;99.90;;;;;;5053246;28;20029;-59
2022/12/19 00:03:10;;;;;;;36.63;15.13;;;0.80;99.90;;;;;;5053357;28;20025;-59
2022/12/19 00:05:38;;;;;;;33.27;13.33;;;0.80;99.90;;;;;;5053474;28;20052;-59
2022/12/19 00:08:12;;;;;;;37.43;16.77;;;0.80;99.90;;;;;;5053131;28;20029;-59
2022/12/19 00:10:38;;;;;;;41.17;18.80;;;0.80;99.90;;;;;;5053201;28;20029;-59
2022/12/19 00:13:04;;;;;;;36.00;12.50;;;0.80;99.90;;;;;;5053129;28;20029;-58
2022/12/19 00:15:31;;;;;;;35.90;15.17;;;0.90;99.90;;;;;;5053077;28;20477;-59
2022/12/19 00:17:57;;;;;;;29.33;11.27;;;0.90;99.90;;;;;;5053149;28;20037;-59
2022/12/19 00:20:23;;;;;;;42.93;16.50;;;0.90;99.90;;;;;;5052912;28;20024;-59
2022/12/19 00:22:48;;;;;;;40.40;17.03;;;0.90;99.90;;;;;;5053114;28;20024;-59
2022/12/19 00:25:14;;;;;;;35.47;13.87;;;1.00;99.90;;;;;;5053056;28;20552;-59
2022/12/19 00:27:40;;;;;;;39.03;15.77;;;1.00;99.90;;;;;;5052721;28;20032;-59
2022/12/19 00:30:06;;;;;;;39.27;15.77;;;1.00;99.90;;;;;;5052728;28;20057;-59
2022/12/19 00:32:32;;;;;;;29.23;11.63;;;1.10;99.90;;;;;;5052914;28;20029;-58
2022/12/19 00:34:58;;;;;;;42.73;17.03;;;1.10;99.90;;;;;;5052630;28;20032;-59
2022/12/19 00:37:23;;;;;;;41.40;17.17;;;1.10;99.90;;;;;;5052663;28;20021;-59
2022/12/19 00:39:49;;;;;;;40.97;18.10;;;1.10;99.90;;;;;;5052632;28;20402;-59
2022/12/19 00:42:15;;;;;;;27.13;12.90;;;1.10;99.90;;;;;;5052683;28;20028;-59
2022/12/19 00:44:40;;;;;;;29.40;12.67;;;1.10;99.90;;;;;;5052671;28;20113;-59
2022/12/19 00:47:06;;;;;;;30.10;14.17;;;1.20;99.90;;;;;;5051961;28;20021;-59
2022/12/19 00:49:32;;;;;;;40.83;16.30;;;1.20;99.90;;;;;;5050821;28;20120;-59
2022/12/19 00:51:58;;;;;;;42.13;16.40;;;1.20;99.90;;;;;;5052580;28;20032;-59
2022/12/19 00:54:24;;;;;;;37.93;15.03;;;1.20;99.90;;;;;;5052551;28;20466;-59
2022/12/19 00:56:50;;;;;;;37.77;15.23;;;1.30;99.90;;;;;;5050875;28;20079;-59
2022/12/19 00:59:16;;;;;;;41.40;17.07;;;1.30;99.90;;;;;;5051163;28;20041;-59
2022/12/19 01:01:41;;;;;;;36.77;15.30;;;1.30;99.90;;;;;;5052691;28;20109;-59
2022/12/19 01:04:12;;;;;;;42.90;18.60;;;1.30;99.90;;;;;;5052228;28;20041;-59
2022/12/19 01:06:41;;;;;;;27.07;10.27;;;1.30;99.90;;;;;;5052423;28;20041;-59
2022/12/19 01:09:07;;;;;;;39.80;15.93;;;1.30;99.90;;;;;;5050777;28;20501;-59
2022/12/19 01:14:18;;;;;;;35.40;12.43;;;1.40;99.90;;;;;;5052133;28;20025;-59
2022/12/19 01:16:44;;;;;;;34.53;14.10;;;1.40;99.90;;;;;;5050617;28;20564;-59
2022/12/19 01:19:09;;;;;;;32.90;13.23;;;1.40;99.90;;;;;;5051904;28;20025;-59
2022/12/19 01:21:35;;;;;;;47.23;19.33;;;1.40;99.90;;;;;;5050713;28;20112;-59
2022/12/19 01:24:02;;;;;;;43.70;17.07;;;1.40;99.90;;;;;;5050496;28;20051;-59
2022/12/19 01:26:28;;;;;;;41.20;16.33;;;1.40;99.90;;;;;;5051819;28;20029;-59
2022/12/19 01:28:54;;;;;;;30.70;11.77;;;1.50;99.90;;;;;;5051669;28;20064;-60
2022/12/19 01:31:20;;;;;;;39.33;15.93;;;1.50;99.90;;;;;;5051896;28;20053;-59
2022/12/19 01:33:46;;;;;;;38.67;16.53;;;1.50;99.90;;;;;;5051788;28;20465;-59
2022/12/19 01:36:12;;;;;;;28.43;12.30;;;1.50;99.90;;;;;;5051757;28;20060;-59
2022/12/19 01:38:37;;;;;;;42.50;18.37;;;1.60;99.90;;;;;;5049961;28;20035;-60
2022/12/19 01:41:04;;;;;;;33.80;14.33;;;1.60;99.90;;;;;;5050290;28;20033;-59
2022/12/19 01:43:51;;;;;;;40.60;15.27;;;1.60;99.90;;;;;;5051646;28;20021;-59
2022/12/19 01:46:43;;;;;;;35.73;14.83;;;1.60;99.90;;;;;;5050142;28;20036;-59
2022/12/19 01:49:34;;;;;;;29.27;11.77;;;1.70;99.90;;;;;;5050101;28;20671;-59
2022/12/19 01:52:04;;;;;;;43.10;17.43;;;1.70;99.90;;;;;;5046241;28;20128;-59
2022/12/19 01:54:40;;;;;;;38.33;13.63;;;1.80;99.90;;;;;;5051494;28;20044;-59
2022/12/19 01:57:11;;;;;;;32.07;13.10;;;1.80;99.90;;;;;;5051238;28;20116;-59
2022/12/19 01:59:42;;;;;;;23.90;10.53;;;1.90;99.90;;;;;;5049635;28;20059;-60
2022/12/19 02:02:51;;;;;;;37.33;14.70;;;1.90;99.90;;;;;;5048679;28;20112;-58
2022/12/19 02:05:17;;;;;;;34.38;13.98;;;2.00;99.90;;;;;;5009037;28;20034;-59
2022/12/19 02:07:43;;;;;;;40.00;16.30;;;2.00;99.90;;;;;;4992482;28;20096;-59
2022/12/19 02:10:09;;;;;;;36.33;15.57;;;2.00;99.90;;;;;;5029235;28;20041;-59
2022/12/19 02:12:38;;;;;;;38.27;16.77;;;2.10;99.90;;;;;;5050887;28;20025;-59
2022/12/19 02:15:07;;;;;;;41.67;16.80;;;2.10;99.90;;;;;;5049610;28;20478;-59
2022/12/19 02:18:00;;;;;;;43.20;17.77;;;2.20;99.90;;;;;;5049515;28;20048;-59
2022/12/19 02:21:10;;;;;;;32.57;13.60;;;2.20;99.90;;;;;;5050878;28;20025;-59
2022/12/19 02:23:55;;;;;;;26.47;11.93;;;2.30;99.90;;;;;;5041584;28;20398;-59
2022/12/19 02:26:49;;;;;;;38.13;15.90;;;2.40;99.90;;;;;;5049482;28;20029;-59
2022/12/19 02:29:43;;;;;;;37.77;15.37;;;2.40;99.90;;;;;;5049301;28;20086;-58
2022/12/19 02:32:28;;;;;;;41.97;17.70;;;2.50;99.90;;;;;;5045093;28;20041;-59
2022/12/19 02:35:02;;;;;;;36.80;16.40;;;2.60;99.90;;;;;;5062899;22;20045;-53
2022/12/19 02:37:49;;;;;;;35.73;14.80;;;2.60;99.90;;;;;;5050644;28;20481;-55
2022/12/19 02:40:22;;;;;;;32.00;13.87;;;2.70;99.90;;;;;;5049391;28;20170;-54
2022/12/19 02:42:56;;;;;;;34.10;14.53;;;2.80;99.90;;;;;;5049462;28;20497;-54
2022/12/19 02:45:23;;;;;;;35.27;15.77;;;2.80;99.90;;;;;;5066206;28;20040;-53
2022/12/19 02:47:50;;;;;;;35.27;14.80;;;2.90;99.90;;;;;;5049289;28;20036;-53
2022/12/19 02:50:16;;;;;;;30.27;11.97;;;2.90;99.90;;;;;;5050614;28;20489;-54
2022/12/19 02:52:45;;;;;;;37.13;16.27;;;3.00;99.90;;;;;;5049480;28;20246;-54
2022/12/19 02:55:19;;;;;;;31.35;13.82;;;3.00;99.90;;;;;;5050593;28;20036;-54
2022/12/19 02:58:15;;;;;;;30.83;12.07;;;3.00;99.90;;;;;;5050649;28;20025;-54
2022/12/19 03:01:25;;;;;;;32.37;14.73;;;3.00;99.90;;;;;;5049186;28;20029;-52
2022/12/19 03:04:10;;;;;;;35.97;15.25;;;3.00;99.90;;;;;;5042062;28;20432;-53
2022/12/19 03:06:47;;;;;;;31.47;15.80;;;3.10;99.90;;;;;;5050522;28;20029;-53
2022/12/19 03:09:30;;;;;;;33.23;15.30;;;3.00;99.90;;;;;;5050357;28;20142;-53
2022/12/19 03:12:02;;;;;;;28.40;13.80;;;3.10;99.90;;;;;;5053373;28;20044;-54
2022/12/19 03:14:30;;;;;;;34.60;15.13;;;3.10;99.90;;;;;;5053369;28;20029;-52
2022/12/19 03:16:56;;;;;;;33.17;16.17;;;3.20;99.90;;;;;;5053104;28;20025;-52
2022/12/19 03:19:23;;;;;;;34.13;15.87;;;3.20;99.90;;;;;;5053100;28;20036;-50
2022/12/19 03:21:49;;;;;;;34.70;15.13;;;3.20;99.90;;;;;;5054464;28;20053;-50
2022/12/19 03:24:16;;;;;;;33.43;14.67;;;3.10;99.90;;;;;;5054352;28;20071;-54
2022/12/19 03:26:54;;;;;;;27.70;13.40;;;3.10;99.90;;;;;;5054404;28;20099;-52
2022/12/19 03:29:33;;;;;;;33.07;14.90;;;3.10;99.90;;;;;;5054207;28;20116;-53
2022/12/19 03:32:02;;;;;;;35.47;15.80;;;3.10;99.90;;;;;;5054421;28;20025;-53
2022/12/19 03:34:39;;;;;;;30.08;13.77;;;3.00;99.90;;;;;;5054072;28;20036;-52
2022/12/19 03:37:10;;;;;;;29.07;12.47;;;3.00;99.90;;;;;;5054320;28;20037;-53
2022/12/19 03:39:39;;;;;;;30.37;12.10;;;3.00;99.90;;;;;;5052923;28;20508;-54
2022/12/19 03:44:54;;;;;;;27.00;12.33;;;3.00;99.90;;;;;;5053990;28;20029;-53
2022/12/19 03:47:31;;;;;;;39.67;15.27;;;3.00;99.90;;;;;;5054131;28;20029;-50
2022/12/19 03:49:57;;;;;;;28.47;11.60;;;3.00;99.90;;;;;;5053849;28;20125;-52
2022/12/19 03:52:40;;;;;;;34.33;16.97;;;3.00;99.90;;;;;;5054028;28;20120;-51
2022/12/19 03:55:16;;;;;;;35.27;15.57;;;3.00;99.90;;;;;;5053807;28;20033;-50
2022/12/19 03:57:45;;;;;;;34.43;14.47;;;3.10;99.90;;;;;;5053751;28;20025;-51
2022/12/19 04:00:14;;;;;;;21.80;9.98;;;3.10;99.90;;;;;;5053704;28;20094;-52
2022/12/19 04:02:44;;;;;;;39.00;17.13;;;3.20;99.90;;;;;;5053776;28;20060;-53
2022/12/19 04:05:14;;;;;;;32.83;13.05;;;3.20;99.90;;;;;;5053777;28;20098;-54
2022/12/19 04:07:41;;;;;;;30.77;13.07;;;3.20;99.90;;;;;;5053436;28;20040;-51
2022/12/19 04:10:10;;;;;;;34.47;15.47;;;3.20;99.90;;;;;;5053436;28;20052;-53
2022/12/19 04:12:44;;;;;;;37.50;15.20;;;3.10;99.90;;;;;;5053700;28;20124;-49
2022/12/19 04:15:10;;;;;;;34.60;14.13;;;3.10;99.90;;;;;;5068865;28;20485;-53
2022/12/19 04:17:56;;;;;;;41.00;18.47;;;3.10;99.90;;;;;;5053311;28;20036;-53
2022/12/19 04:20:25;;;;;;;39.07;16.67;;;3.00;99.90;;;;;;5053192;28;20401;-52
2022/12/19 04:23:06;;;;;;;41.85;17.38;;;3.00;99.90;;;;;;5053272;28;20057;-52
2022/12/19 04:25:45;;;;;;;41.50;18.03;;;3.00;99.90;;;;;;5053473;28;20040;-50
2022/12/19 04:28:28;;;;;;;34.90;13.37;;;3.00;99.90;;;;;;5053200;28;20390;-51
2022/12/19 04:30:54;;;;;;;36.33;16.83;;;3.10;99.90;;;;;;5053017;28;20033;-51
2022/12/19 04:33:19;;;;;;;41.03;15.10;;;3.10;99.90;;;;;;5053212;28;20032;-51
2022/12/19 04:35:45;;;;;;;41.33;19.80;;;3.10;99.90;;;;;;5052802;28;20426;-53
2022/12/19 04:38:11;;;;;;;29.53;12.63;;;3.10;99.90;;;;;;5052866;28;20119;-51
2022/12/19 04:40:37;;;;;;;36.97;16.37;;;3.00;99.90;;;;;;5052680;28;20028;-51
2022/12/19 04:43:02;;;;;;;38.03;15.93;;;3.00;99.90;;;;;;5052829;28;20021;-52
2022/12/19 04:45:28;;;;;;;37.27;14.97;;;3.00;99.90;;;;;;5051596;28;20469;-51
2022/12/19 04:47:54;;;;;;;46.47;19.40;;;3.00;99.90;;;;;;5052773;28;20033;-53
2022/12/19 04:50:19;;;;;;;44.33;17.57;;;3.00;99.90;;;;;;5052433;28;20036;-53
2022/12/19 04:52:45;;;;;;;45.60;18.23;;;3.00;99.90;;;;;;5052697;28;20123;-50
2022/12/19 04:55:11;;;;;;;45.80;18.00;;;3.00;99.90;;;;;;5067816;28;20074;-53
2022/12/19 04:57:36;;;;;;;37.93;13.80;;;3.00;99.90;;;;;;5052333;28;20025;-51
2022/12/19 05:00:05;;;;;;;49.63;21.43;;;3.00;99.90;;;;;;5052576;28;20033;-54
2022/12/19 05:02:31;;;;;;;45.95;19.88;;;3.00;99.90;;;;;;5052486;28;20549;-53
2022/12/19 05:04:57;;;;;;;50.30;21.53;;;3.00;99.90;;;;;;5052474;28;20134;-53
2022/12/19 05:07:23;;;;;;;44.73;18.63;;;3.10;99.90;;;;;;5052109;28;20036;-54
2022/12/19 05:09:48;;;;;;;36.37;16.07;;;3.10;99.90;;;;;;5052207;28;20021;-54
2022/12/19 05:12:14;;;;;;;52.37;22.67;;;3.10;99.90;;;;;;5052186;28;20028;-56
2022/12/19 05:14:40;;;;;;;39.77;14.27;;;3.10;99.90;;;;;;5052389;28;20032;-53
2022/12/19 05:17:05;;;;;;;50.57;18.67;;;3.10;99.90;;;;;;5051879;28;20053;-54
2022/12/19 05:19:31;;;;;;;44.33;17.33;;;3.10;99.90;;;;;;5052043;28;20481;-53
2022/12/19 05:21:57;;;;;;;56.00;23.63;;;3.10;99.90;;;;;;5052110;28;20183;-51
2022/12/19 05:24:23;;;;;;;55.53;22.97;;;3.10;99.90;;;;;;5051986;28;20037;-52
2022/12/19 05:26:49;;;;;;;36.97;14.80;;;3.20;99.90;;;;;;5052212;28;20040;-53
2022/12/19 05:29:16;;;;;;;34.90;14.30;;;3.20;99.90;;;;;;5052179;28;20378;-49
2022/12/19 05:31:42;;;;;;;51.93;20.87;;;3.20;99.90;;;;;;5052032;28;20028;-53
2022/12/19 05:34:07;;;;;;;61.30;22.97;;;3.20;99.90;;;;;;5051059;28;20043;-53
2022/12/19 05:36:33;;;;;;;45.77;18.77;;;3.20;99.90;;;;;;5051483;28;20123;-52
2022/12/19 05:38:59;;;;;;;61.17;25.20;;;3.30;99.90;;;;;;5051610;28;20025;-54
2022/12/19 05:41:25;;;;;;;53.87;22.97;;;3.20;99.90;;;;;;5051560;28;20053;-54
2022/12/19 05:43:53;;;;;;;55.07;23.07;;;3.20;99.90;;;;;;5051546;28;20082;-51
2022/12/19 05:46:20;;;;;;;39.00;16.70;;;3.20;99.90;;;;;;5051532;28;20507;-51
2022/12/19 05:48:46;;;;;;;49.33;20.80;;;3.30;99.90;;;;;;5051374;28;20116;-55
2022/12/19 05:51:12;;;;;;;46.00;19.37;;;3.30;99.90;;;;;;5051494;28;20063;-55
2022/12/19 05:53:39;;;;;;;53.97;23.23;;;3.30;99.90;;;;;;5051463;28;20037;-55
2022/12/19 05:56:10;;;;;;;67.67;26.93;;;3.30;99.90;;;;;;5051210;28;20036;-55
2022/12/19 05:58:38;;;;;;;53.20;22.97;;;3.30;99.90;;;;;;5050873;28;20029;-53
2022/12/19 06:01:06;;;;;;;58.53;22.10;;;3.40;99.90;;;;;;5051225;28;20044;-55
2022/12/19 06:03:32;;;;;;;50.27;21.00;;;3.40;99.90;;;;;;5051526;28;20083;-55
2022/12/19 06:06:02;;;;;;;52.73;20.23;;;3.50;99.90;;;;;;5051302;28;20440;-54
2022/12/19 06:08:28;;;;;;;60.63;25.50;;;3.50;99.90;;;;;;5050868;28;20454;-53
2022/12/19 06:10:54;;;;;;;61.63;25.57;;;3.40;99.90;;;;;;5051081;28;20116;-54
2022/12/19 06:13:19;;;;;;;52.67;21.37;;;3.50;99.90;;;;;;5051135;28;20063;-52
2022/12/19 06:15:45;;;;;;;59.43;25.13;;;3.50;99.90;;;;;;5050951;28;20489;-51
2022/12/19 06:18:11;;;;;;;56.90;22.93;;;3.50;99.90;;;;;;5051000;28;20032;-51
2022/12/19 06:20:36;;;;;;;58.47;25.57;;;3.60;99.90;;;;;;5050799;28;20029;-54
2022/12/19 06:23:02;;;;;;;51.93;20.83;;;3.60;99.90;;;;;;5050943;28;20100;-54
2022/12/19 06:25:28;;;;;;;58.03;24.03;;;3.60;99.90;;;;;;5050848;28;20355;-52
2022/12/19 06:27:54;;;;;;;51.60;22.37;;;3.70;99.90;;;;;;5050812;28;20044;-55
2022/12/19 06:30:19;;;;;;;57.50;23.60;;;3.70;99.90;;;;;;5051015;28;20029;-57
2022/12/19 06:32:45;;;;;;;55.93;24.90;;;3.80;99.90;;;;;;5050833;28;20493;-54
2022/12/19 06:35:11;;;;;;;56.47;23.37;;;3.80;99.90;;;;;;5050518;28;20036;-56
2022/12/19 06:37:37;;;;;;;49.23;20.67;;;3.80;99.90;;;;;;5050489;28;20043;-54
2022/12/19 06:40:02;;;;;;;44.23;19.77;;;3.80;99.90;;;;;;5050508;28;20029;-53
2022/12/19 06:42:28;;;;;;;36.93;16.37;;;3.80;99.90;;;;;;5050598;28;20040;-54
2022/12/19 06:44:55;;;;;;;51.40;21.83;;;3.90;99.90;;;;;;5050044;28;20035;-53
2022/12/19 06:47:21;;;;;;;36.00;14.33;;;3.90;99.90;;;;;;5050062;28;20025;-54
2022/12/19 06:49:48;;;;;;;49.77;20.40;;;4.00;99.90;;;;;;5050419;28;20041;-55
2022/12/19 06:52:14;;;;;;;43.87;18.70;;;4.00;99.90;;;;;;5050560;28;20027;-53
2022/12/19 06:54:40;;;;;;;37.30;16.23;;;4.00;99.90;;;;;;5050514;28;20037;-55
2022/12/19 06:57:06;;;;;;;50.70;22.87;;;4.00;99.90;;;;;;5050290;28;20040;-56
2022/12/19 06:59:32;;;;;;;33.33;14.17;;;4.10;99.90;;;;;;5050315;28;20091;-55
2022/12/19 07:02:13;;;;;;;33.77;15.00;;;4.10;99.90;;;;;;5050466;28;20056;-54
2022/12/19 07:04:49;;;;;;;44.47;18.63;;;4.10;99.90;;;;;;5050787;28;20091;-54
2022/12/19 07:07:15;;;;;;;45.80;20.33;;;4.20;99.90;;;;;;5050415;28;20044;-55
2022/12/19 07:09:41;;;;;;;41.17;18.33;;;4.20;99.90;;;;;;5050295;28;20078;-55
2022/12/19 07:12:07;;;;;;;51.30;23.33;;;4.20;99.90;;;;;;5050492;28;20028;-54
2022/12/19 07:14:32;;;;;;;43.07;18.60;;;4.30;99.90;;;;;;5050280;28;20535;-54
2022/12/19 07:17:00;;;;;;;38.57;15.17;;;4.30;99.90;;;;;;5050120;28;20029;-55
2022/12/19 07:19:27;;;;;;;33.47;15.10;;;4.30;99.90;;;;;;5049921;28;20033;-52
2022/12/19 07:21:54;;;;;;;45.77;18.73;;;4.30;99.90;;;;;;5050454;28;20366;-54
2022/12/19 07:24:20;;;;;;;33.73;15.43;;;4.40;99.90;;;;;;5050205;28;20029;-55
2022/12/19 07:26:46;;;;;;;36.90;15.93;;;4.40;99.90;;;;;;5050220;28;20040;-56
2022/12/19 07:29:12;;;;;;;40.00;18.93;;;4.40;99.90;;;;;;5050039;28;20393;-55
2022/12/19 07:31:38;;;;;;;40.13;18.50;;;4.50;99.90;;;;;;5050127;28;20397;-54
2022/12/19 07:34:04;;;;;;;41.83;20.50;;;4.50;99.90;;;;;;5050029;28;20033;-55
2022/12/19 07:36:30;;;;;;;31.80;15.03;;;4.50;99.90;;;;;;5050025;28;20421;-55
2022/12/19 07:38:55;;;;;;;37.73;16.97;;;4.60;99.90;;;;;;5050219;28;20473;-54
2022/12/19 07:41:21;;;;;;;42.10;19.13;;;4.60;99.90;;;;;;5050153;28;20024;-52
2022/12/19 07:43:47;;;;;;;41.50;16.90;;;4.60;99.90;;;;;;5050053;28;20044;-54
2022/12/19 07:46:13;;;;;;;40.93;18.80;;;4.60;99.90;;;;;;5050118;28;20036;-55
2022/12/19 07:48:38;;;;;;;31.47;15.00;;;4.60;99.90;;;;;;5049518;28;20029;-54
2022/12/19 07:51:04;;;;;;;39.67;18.27;;;4.70;99.90;;;;;;5050188;28;20112;-53
2022/12/19 07:53:31;;;;;;;40.73;18.57;;;4.70;99.90;;;;;;5049939;28;20051;-54
2022/12/19 07:55:57;;;;;;;42.33;20.37;;;4.70;99.90;;;;;;5050017;28;20036;-52
2022/12/19 07:58:22;;;;;;;37.97;18.30;;;4.70;99.90;;;;;;5052911;28;20025;-55
2022/12/19 08:00:59;;;;;;;38.27;17.47;;;4.70;99.90;;;;;;5053437;28;20029;-55
2022/12/19 08:03:27;;;;;;;43.87;19.83;;;4.80;99.90;;;;;;5053554;28;20063;-52
2022/12/19 08:05:59;;;;;;;36.27;16.67;;;4.80;99.90;;;;;;5053484;28;20025;-49
2022/12/19 08:08:26;;;;;;;37.90;18.23;;;4.80;99.90;;;;;;5053199;28;20029;-50
2022/12/19 08:10:51;;;;;;;43.10;22.03;;;4.80;99.90;;;;;;5053200;28;20037;-53
2022/12/19 08:13:17;;;;;;;41.33;18.90;;;4.90;99.90;;;;;;5053370;28;20043;-54
2022/12/19 08:15:43;;;;;;;32.87;15.90;;;4.90;99.90;;;;;;5053011;28;20113;-53
2022/12/19 08:18:08;;;;;;;35.37;16.80;;;5.00;99.90;;;;;;5053314;28;20442;-50
2022/12/19 08:20:34;;;;;;;34.17;15.97;;;5.00;99.90;;;;;;5053018;28;20017;-54
2022/12/19 08:23:00;;;;;;;39.27;18.10;;;5.00;99.90;;;;;;5053215;28;20370;-55
2022/12/19 08:25:27;;;;;;;37.10;18.37;;;5.10;99.90;;;;;;5053123;28;20044;-52
2022/12/19 08:27:53;;;;;;;31.83;14.67;;;5.00;99.90;;;;;;5052848;28;20029;-54
2022/12/19 08:30:18;;;;;;;35.57;17.10;;;5.10;99.90;;;;;;5052726;28;20036;-53
2022/12/19 08:32:44;;;;;;;37.87;17.90;;;5.10;99.90;;;;;;5052904;28;20036;-53
2022/12/19 08:35:10;;;;;;;36.33;16.47;;;5.20;99.90;;;;;;5066684;22;20139;-53
2022/12/19 08:37:36;;;;;;;33.80;16.43;;;5.20;99.90;;;;;;5052680;28;20033;-53
2022/12/19 08:40:02;;;;;;;35.20;16.27;;;5.20;99.90;;;;;;5052756;28;20215;-53
2022/12/19 08:42:28;;;;;;;29.33;14.13;;;5.20;99.90;;;;;;5052820;28;20096;-54
2022/12/19 08:44:53;;;;;;;34.03;15.73;;;5.20;99.90;;;;;;5052690;28;20088;-52
2022/12/19 08:47:19;;;;;;;27.70;13.37;;;5.30;99.90;;;;;;5051919;28;20041;-52
2022/12/19 08:49:45;;;;;;;33.93;16.33;;;5.30;99.90;;;;;;5052581;28;20033;-43
2022/12/19 08:52:10;;;;;;;31.63;15.57;;;5.40;99.90;;;;;;5052951;28;20064;-46
2022/12/19 08:54:36;;;;;;;36.60;16.67;;;5.40;99.90;;;;;;5051081;28;20111;-42
2022/12/19 08:57:02;;;;;;;36.50;17.00;;;5.40;99.90;;;;;;5051464;28;20466;-46
2022/12/19 08:59:28;;;;;;;33.13;15.90;;;5.40;99.90;;;;;;5052124;28;20029;-42
2022/12/19 09:01:53;;;;;;;32.20;16.40;;;5.40;99.90;;;;;;5052087;28;20515;-55
2022/12/19 09:04:19;;;;;;;30.77;15.60;;;5.50;99.90;;;;;;5052084;28;20035;-53
2022/12/19 09:06:44;;;;;;;29.57;15.83;;;5.50;99.90;;;;;;5051411;28;20493;-52
2022/12/19 09:09:10;;;;;;;32.30;16.43;;;5.50;99.90;;;;;;5051293;28;20470;-51
2022/12/19 09:11:36;;;;;;;28.30;14.77;;;5.50;99.90;;;;;;5052098;28;20025;-53
2022/12/19 09:14:03;;;;;;;35.10;16.10;;;5.50;99.90;;;;;;5052135;28;20043;-54
2022/12/19 09:16:29;;;;;;;35.70;16.67;;;5.60;99.90;;;;;;5051758;28;20037;-55
2022/12/19 09:18:57;;;;;;;29.07;15.03;;;5.60;99.90;;;;;;5051984;28;20040;-53
2022/12/19 09:21:25;;;;;;;29.00;14.97;;;5.60;99.90;;;;;;5052106;28;20032;-52
2022/12/19 09:23:56;;;;;;;31.60;14.77;;;5.70;99.90;;;;;;5051796;28;20033;-53
2022/12/19 09:26:23;;;;;;;27.10;13.17;;;5.80;99.90;;;;;;5051651;28;20150;-52
2022/12/19 09:28:49;;;;;;;32.73;16.47;;;5.80;99.90;;;;;;5051587;28;20842;-53
2022/12/19 09:31:19;;;;;;;29.47;14.33;;;5.80;99.90;;;;;;5052044;28;20477;-51
2022/12/19 09:33:46;;;;;;;31.10;14.50;;;5.80;99.90;;;;;;5051829;28;20040;-54
2022/12/19 09:36:17;;;;;;;28.67;13.70;;;5.80;99.90;;;;;;5051608;28;20082;-53
2022/12/19 09:38:43;;;;;;;29.20;14.63;;;5.80;99.90;;;;;;5051505;28;20474;-53
2022/12/19 09:41:36;;;;;;;27.97;14.43;;;5.90;99.90;;;;;;5051607;28;20048;-50
2022/12/19 09:44:51;;;;;;;29.93;14.80;;;5.90;99.90;;;;;;5051571;28;20116;-52
2022/12/19 09:47:22;;;;;;;28.83;14.53;;;6.00;99.90;;;;;;5029030;28;20063;-50
2022/12/19 09:49:48;;;;;;;32.93;14.33;;;5.90;99.90;;;;;;5028914;28;20049;-51
2022/12/19 09:52:34;;;;;;;31.60;15.53;;;6.00;99.90;;;;;;5042196;28;20076;-53
2022/12/19 09:55:15;;;;;;;29.03;14.77;;;6.00;99.90;;;;;;5051355;28;20508;-48
2022/12/19 09:58:02;;;;;;;28.57;13.90;;;6.10;99.90;;;;;;5051322;28;20037;-53
2022/12/19 10:00:34;;;;;;;27.00;14.17;;;6.10;99.90;;;;;;5051136;28;20108;-53
2022/12/19 10:03:04;;;;;;;29.10;14.70;;;6.00;99.90;;;;;;5051430;28;20202;-55
2022/12/19 10:05:39;;;;;;;20.77;9.82;;;6.10;99.90;;;;;;5051268;28;20036;-53
2022/12/19 10:08:20;;;;;;;26.57;12.57;;;6.10;99.90;;;;;;5051124;28;20052;-52
2022/12/19 10:10:59;;;;;;;25.47;13.77;;;6.20;99.90;;;;;;5051025;28;20164;-53
2022/12/19 10:13:40;;;;;;;26.60;13.80;;;6.20;99.90;;;;;;5051300;28;20039;-51
2022/12/19 10:16:24;;;;;;;29.53;13.50;;;6.20;99.90;;;;;;5051068;28;20029;-50
2022/12/19 10:19:00;;;;;;;30.57;15.33;;;6.20;99.90;;;;;;5050983;28;20142;-50
2022/12/19 10:21:34;;;;;;;31.40;15.70;;;6.20;99.90;;;;;;5050906;28;20056;-51
2022/12/19 10:24:11;;;;;;;29.23;14.13;;;6.20;99.90;;;;;;5051122;28;20025;-52
2022/12/19 10:26:49;;;;;;;29.20;13.63;;;6.20;99.90;;;;;;5050839;28;20494;-51
2022/12/19 10:29:50;;;;;;;21.30;11.33;;;6.40;99.90;;;;;;5050831;28;20021;-51
2022/12/19 10:32:39;;;;;;;25.87;14.00;;;6.50;99.90;;;;;;5047089;28;20037;-51
2022/12/19 10:35:32;;;;;;;26.55;13.57;;;6.40;99.90;;;;;;5050402;28;20041;-51
2022/12/19 10:38:18;;;;;;;22.40;12.27;;;6.50;99.90;;;;;;5050563;28;20104;-53
2022/12/19 10:40:54;;;;;;;19.30;10.80;;;6.50;99.90;;;;;;5046394;28;20523;-52
2022/12/19 10:43:34;;;;;;;24.27;12.27;;;6.70;99.90;;;;;;5050706;28;20573;-53
2022/12/19 10:46:10;;;;;;;33.60;14.90;;;6.70;99.90;;;;;;5050529;28;20124;-53
2022/12/19 10:48:36;;;;;;;25.67;12.37;;;6.60;99.90;;;;;;5050297;28;20033;-54
2022/12/19 10:51:01;;;;;;;20.47;10.63;;;6.70;99.90;;;;;;5050509;28;20036;-54
2022/12/19 10:53:29;;;;;;;21.40;10.93;;;6.80;99.90;;;;;;5050599;28;20064;-54
2022/12/19 10:56:11;;;;;;;25.30;12.17;;;6.80;99.90;;;;;;5039901;28;20446;-49
2022/12/19 10:58:40;;;;;;;19.60;9.17;;;6.80;99.90;;;;;;5041579;28;20029;-50
2022/12/19 11:01:16;;;;;;;24.93;13.27;;;6.80;99.90;;;;;;5049132;28;20375;-54
2022/12/19 11:03:46;;;;;;;19.93;11.07;;;6.80;99.90;;;;;;5049186;28;20025;-52
2022/12/19 11:06:34;;;;;;;24.83;12.33;;;6.70;99.90;;;;;;5049043;28;20052;-52
2022/12/19 11:09:31;;;;;;;23.23;12.27;;;6.70;99.90;;;;;;5049222;28;20056;-51
2022/12/19 11:12:11;;;;;;;23.83;11.47;;;6.70;99.90;;;;;;5046637;28;20459;-54
2022/12/19 11:14:40;;;;;;;22.87;12.53;;;6.70;99.90;;;;;;5049129;28;20104;-53
2022/12/19 11:17:23;;;;;;;27.88;13.02;;;6.60;99.90;;;;;;5048839;28;20393;-51
2022/12/19 11:19:49;;;;;;;24.90;12.73;;;6.60;99.90;;;;;;5048883;28;20037;-53
2022/12/19 11:22:20;;;;;;;19.83;11.20;;;6.70;99.90;;;;;;5047478;28;20025;-54
2022/12/19 11:24:52;;;;;;;25.50;11.43;;;6.60;99.90;;;;;;5047597;28;20030;-51
2022/12/19 11:27:45;;;;;;;24.10;12.77;;;6.70;99.90;;;;;;5048579;28;20029;-51
2022/12/19 11:30:14;;;;;;;25.40;12.97;;;6.70;99.90;;;;;;5048460;28;20040;-54
2022/12/19 11:32:42;;;;;;;26.83;12.93;;;6.70;99.90;;;;;;5051081;28;20056;-48
2022/12/19 11:35:19;;;;;;;24.70;12.20;;;6.70;99.90;;;;;;5052530;28;20068;-55
2022/12/19 11:37:58;;;;;;;22.07;11.30;;;6.70;99.90;;;;;;5050430;28;20028;-49
2022/12/19 11:40:54;;;;;;;18.17;9.77;;;6.70;99.90;;;;;;5050455;28;20108;-52
2022/12/19 11:43:26;;;;;;;20.47;11.53;;;6.70;99.90;;;;;;5052304;28;20389;-52
2022/12/19 11:46:29;;;;;;;22.97;11.47;;;6.80;99.90;;;;;;5051617;28;20025;-53
2022/12/19 11:49:24;;;;;;;23.03;12.07;;;6.80;99.90;;;;;;5051835;28;20029;-52
2022/12/19 11:52:21;;;;;;;23.23;12.00;;;6.80;99.90;;;;;;5043902;28;20067;-51
2022/12/19 11:54:52;;;;;;;20.27;11.00;;;6.90;99.90;;;;;;5050679;28;20512;-48
2022/12/19 11:57:18;;;;;;;24.03;12.47;;;6.90;99.90;;;;;;5049835;28;20090;-52
2022/12/19 11:59:45;;;;;;;22.67;11.57;;;7.00;99.90;;;;;;5051226;28;20059;-53
2022/12/19 12:02:33;;;;;;;23.60;11.10;;;7.00;99.90;;;;;;5051658;28;20154;-49
2022/12/19 12:05:34;;;;;;;20.40;9.53;;;7.10;99.90;;;;;;5051317;28;20029;-49
2022/12/19 12:08:37;;;;;;;22.13;10.30;;;7.10;99.90;;;;;;5027049;28;20395;-47
2022/12/19 12:11:17;;;;;;;20.70;9.63;;;7.10;99.90;;;;;;5050377;28;20132;-48
2022/12/19 12:14:04;;;;;;;21.40;12.70;;;7.10;99.90;;;;;;5051109;28;20036;-49
2022/12/19 12:16:40;;;;;;;20.23;11.70;;;7.20;99.90;;;;;;5048673;28;20055;-47
2022/12/19 12:19:28;;;;;;;20.40;10.77;;;7.30;99.90;;;;;;5050702;28;20466;-49
2022/12/19 12:22:26;;;;;;;18.10;8.87;;;7.30;99.90;;;;;;5051626;28;20040;-48
2022/12/19 12:25:17;;;;;;;20.60;10.73;;;7.40;99.90;;;;;;5049173;28;20037;-50
2022/12/19 12:28:19;;;;;;;22.43;9.80;;;7.50;99.90;;;;;;5051583;28;20025;-49
2022/12/19 12:31:11;;;;;;;20.13;8.87;;;7.50;99.90;;;;;;5051118;28;20025;-47
2022/12/19 12:33:42;;;;;;;18.17;9.07;;;7.60;99.90;;;;;;5051771;28;20481;-52
2022/12/19 12:36:33;;;;;;;19.50;8.80;;;7.60;99.90;;;;;;5050778;28;20393;-50
2022/12/19 12:39:23;;;;;;;18.27;9.67;;;7.60;99.90;;;;;;5045743;28;20029;-46
2022/12/19 12:42:22;;;;;;;17.77;10.40;;;7.70;99.90;;;;;;5036494;28;20029;-50
2022/12/19 12:44:49;;;;;;;;;;;7.70;99.90;;;;;;5038702;28;20261;-50
2022/12/19 12:47:23;;;;;;;19.43;10.17;;;7.80;99.90;;;;;;5050999;28;19963;-51
2022/12/19 12:50:06;;;;;;;17.63;10.00;;;7.80;99.90;;;;;;5052355;28;20056;-48
2022/12/19 12:52:34;;;;;;;17.80;9.47;;;7.90;99.90;;;;;;5052583;28;20071;-50
2022/12/19 12:55:03;;;;;;;16.83;8.25;;;7.90;99.90;;;;;;5052081;28;20405;-47
2022/12/19 12:57:29;;;;;;;18.10;10.07;;;8.00;99.90;;;;;;5051981;28;20036;-53
2022/12/19 13:00:13;;;;;;;17.77;8.87;;;8.00;99.90;;;;;;5052147;28;20079;-50
2022/12/19 13:02:39;;;;;;;16.33;8.50;;;8.10;99.90;;;;;;5052345;28;20036;-48
2022/12/19 13:05:28;;;;;;;16.07;9.47;;;8.20;99.90;;;;;;5052347;28;20057;-54
2022/12/19 13:07:54;;;;;;;14.23;7.73;;;8.20;99.90;;;;;;5052132;28;20493;-54